createdAt,value
2023-05-24T00:00:22.176Z,14.15
2023-05-24T00:04:15.358Z,13.07
2023-05-24T00:07:47.587Z,13.33
2023-05-24T00:11:20.458Z,12.82
2023-05-24T00:14:52.591Z,11.20
2023-05-24T00:18:24.480Z,12.23
2023-05-24T00:21:56.620Z,15.87
2023-05-24T00:25:28.373Z,14.40
2023-05-24T00:29:00.597Z,16.05
2023-05-24T00:32:32.779Z,21.87
2023-05-24T00:36:04.698Z,19.23
2023-05-24T00:39:36.892Z,15.00
2023-05-24T00:43:08.728Z,19.00
2023-05-24T00:46:41.661Z,14.93
2023-05-24T00:50:17.237Z,14.73
2023-05-24T00:53:49.844Z,14.00
2023-05-24T00:57:23.909Z,20.55
2023-05-24T01:01:01.205Z,21.17
2023-05-24T01:04:33.584Z,19.97
2023-05-24T01:08:30.326Z,17.80
2023-05-24T01:12:34.400Z,15.50
2023-05-24T01:16:11.923Z,15.13
2023-05-24T01:19:46.258Z,18.77
2023-05-24T01:23:59.944Z,12.90
2023-05-24T01:27:34.294Z,13.70
2023-05-24T01:31:07.145Z,14.97
2023-05-24T01:34:39.279Z,18.07
2023-05-24T01:38:12.178Z,15.57
2023-05-24T01:42:07.901Z,16.88
2023-05-24T01:45:48.539Z,16.53
2023-05-24T01:49:26.998Z,13.73
2023-05-24T01:53:06.712Z,13.82
2023-05-24T01:56:40.863Z,12.68
2023-05-24T02:00:18.241Z,11.77
2023-05-24T02:03:50.954Z,11.27
2023-05-24T02:07:23.228Z,9.50
2023-05-24T02:10:55.054Z,9.80
2023-05-24T02:14:27.190Z,9.17
2023-05-24T02:18:01.429Z,8.27
2023-05-24T02:21:33.727Z,8.48
2023-05-24T02:25:08.324Z,7.65
2023-05-24T02:28:40.647Z,6.77
2023-05-24T02:32:12.490Z,6.07
2023-05-24T02:35:46.800Z,5.70
2023-05-24T02:39:19.048Z,7.78
2023-05-24T02:42:50.856Z,7.15
2023-05-24T02:46:23.016Z,7.00
2023-05-24T02:49:55.360Z,5.25
2023-05-24T02:53:27.431Z,6.70
2023-05-24T02:56:59.998Z,7.63
2023-05-24T03:00:32.039Z,6.90
2023-05-24T03:04:04.280Z,6.80
2023-05-24T03:07:36.648Z,6.97
2023-05-24T03:11:08.689Z,8.60
2023-05-24T03:14:40.624Z,7.73
2023-05-24T03:18:12.606Z,8.80
2023-05-24T03:21:44.471Z,11.65
2023-05-24T03:25:16.867Z,9.93
2023-05-24T03:28:50.718Z,13.03
2023-05-24T03:32:22.825Z,17.40
2023-05-24T03:35:54.573Z,12.98
2023-05-24T03:39:26.606Z,18.27
2023-05-24T03:42:58.673Z,17.70
2023-05-24T03:46:30.787Z,19.75
2023-05-24T03:50:03.362Z,17.45
2023-05-24T03:53:35.408Z,19.10
2023-05-24T03:57:07.771Z,14.07
2023-05-24T04:00:39.718Z,15.13
2023-05-24T04:04:12.019Z,16.95
2023-05-24T04:07:45.369Z,11.53
2023-05-24T04:11:17.391Z,11.90
2023-05-24T04:14:49.539Z,12.98
2023-05-24T04:18:21.793Z,12.68
2023-05-24T04:21:54.107Z,10.97
2023-05-24T04:25:26.896Z,15.80
2023-05-24T04:28:59.057Z,12.20
2023-05-24T04:32:33.456Z,13.40
2023-05-24T04:36:05.875Z,12.17
2023-05-24T04:39:37.630Z,9.57
2023-05-24T04:43:10.768Z,12.32
2023-05-24T04:46:43.060Z,13.60
2023-05-24T04:50:15.320Z,10.83
2023-05-24T04:53:47.206Z,8.47
2023-05-24T04:57:19.573Z,12.02
2023-05-24T05:00:51.793Z,6.90
2023-05-24T05:04:24.045Z,7.40
2023-05-24T05:07:55.928Z,10.43
2023-05-24T05:11:28.355Z,4.65
2023-05-24T05:15:00.270Z,6.90
2023-05-24T05:18:34.151Z,6.07
2023-05-24T05:22:05.998Z,4.37
2023-05-24T05:25:38.072Z,3.85
2023-05-24T05:29:09.858Z,3.88
2023-05-24T05:32:42.049Z,2.40
2023-05-24T05:36:14.052Z,2.37
2023-05-24T05:39:46.383Z,2.33
2023-05-24T05:43:18.479Z,3.38
2023-05-24T05:46:50.383Z,1.17
2023-05-24T05:50:23.850Z,1.23
2023-05-24T05:53:55.965Z,1.45
2023-05-24T05:57:28.056Z,1.85
2023-05-24T06:00:59.812Z,0.87
2023-05-24T06:04:31.931Z,1.37
2023-05-24T06:08:03.976Z,2.20
2023-05-24T06:11:36.121Z,2.42
2023-05-24T06:15:08.482Z,1.77
2023-05-24T06:18:47.425Z,2.03
2023-05-24T06:22:27.594Z,1.65
2023-05-24T06:26:01.614Z,1.55
2023-05-24T06:29:33.465Z,1.97
2023-05-24T06:33:06.172Z,1.80
2023-05-24T06:36:42.670Z,1.63
2023-05-24T06:40:14.823Z,2.83
2023-05-24T06:43:47.078Z,2.00
2023-05-24T06:47:19.043Z,4.07
2023-05-24T06:50:51.197Z,2.35
2023-05-24T06:54:23.233Z,2.17
2023-05-24T06:57:55.714Z,2.63
2023-05-24T07:01:29.470Z,2.65
2023-05-24T07:05:01.437Z,4.93
2023-05-24T07:08:33.716Z,4.87
2023-05-24T07:12:08.924Z,4.20
2023-05-24T07:15:44.230Z,3.10
2023-05-24T07:19:16.552Z,4.65
2023-05-24T07:22:48.216Z,5.17
2023-05-24T07:26:20.841Z,5.93
2023-05-24T07:29:55.914Z,8.30
2023-05-24T07:33:28.182Z,4.72
2023-05-24T07:37:01.024Z,6.20
2023-05-24T07:40:33.188Z,6.17
2023-05-24T07:44:05.102Z,6.97
2023-05-24T07:47:37.610Z,5.05
2023-05-24T07:51:09.858Z,5.03
2023-05-24T07:54:42.395Z,8.10
2023-05-24T07:58:14.129Z,6.63
2023-05-24T08:01:47.750Z,8.07
2023-05-24T08:05:20.104Z,8.07
2023-05-24T08:08:52.044Z,5.50
2023-05-24T08:12:25.917Z,8.13
2023-05-24T08:15:58.571Z,8.77
2023-05-24T08:19:35.920Z,8.03
2023-05-24T08:23:08.192Z,8.40
2023-05-24T08:26:40.243Z,10.65
2023-05-24T08:30:14.364Z,8.45
2023-05-24T08:33:50.221Z,9.40
2023-05-24T08:37:23.443Z,9.40
2023-05-24T08:40:55.652Z,8.60
2023-05-24T08:44:30.156Z,11.07
2023-05-24T08:48:02.923Z,10.80
2023-05-24T08:51:38.825Z,8.90
2023-05-24T08:55:14.105Z,8.52
2023-05-24T08:58:47.181Z,10.95
2023-05-24T09:02:19.903Z,7.60
2023-05-24T09:05:53.282Z,7.97
2023-05-24T09:09:27.943Z,12.68
2023-05-24T09:13:03.022Z,11.98
2023-05-24T09:16:35.714Z,13.07
2023-05-24T09:20:11.021Z,12.97
2023-05-24T09:23:43.827Z,11.40
2023-05-24T09:27:22.500Z,11.77
2023-05-24T09:31:06.204Z,13.27
2023-05-24T09:34:41.670Z,12.43
2023-05-24T09:38:21.041Z,13.20
2023-05-24T09:41:58.034Z,9.77
2023-05-24T09:45:30.126Z,10.87
2023-05-24T09:49:07.084Z,11.70
2023-05-24T09:52:39.537Z,8.45
2023-05-24T09:56:11.361Z,9.00
2023-05-24T09:59:44.486Z,12.20
2023-05-24T10:03:17.986Z,11.67
2023-05-24T10:06:49.920Z,12.35
2023-05-24T10:10:22.974Z,11.95
2023-05-24T10:13:55.459Z,12.27
2023-05-24T10:17:30.222Z,11.80
2023-05-24T10:21:07.941Z,10.65
2023-05-24T10:24:46.488Z,10.75
2023-05-24T10:28:20.268Z,11.83
2023-05-24T10:31:53.911Z,9.33
2023-05-24T10:35:27.454Z,11.00
2023-05-24T10:38:59.331Z,11.63
2023-05-24T10:42:32.446Z,10.03
2023-05-24T10:46:05.212Z,16.70
2023-05-24T10:49:39.857Z,10.77
2023-05-24T10:53:14.993Z,13.13
2023-05-24T10:56:49.539Z,9.77
2023-05-24T11:00:34.626Z,11.90
2023-05-24T11:04:07.895Z,12.07
2023-05-24T11:07:43.123Z,12.75
2023-05-24T11:11:26.523Z,12.47
2023-05-24T11:15:00.881Z,16.43
2023-05-24T11:18:33.811Z,12.48
2023-05-24T11:22:09.391Z,11.57
2023-05-24T11:25:42.018Z,12.15
2023-05-24T11:29:29.300Z,15.03
2023-05-24T11:33:16.542Z,14.95
2023-05-24T11:36:52.153Z,13.20
2023-05-24T11:40:25.010Z,12.70
2023-05-24T11:43:58.421Z,11.03
2023-05-24T11:47:32.631Z,9.45
2023-05-24T11:51:05.980Z,10.55
2023-05-24T11:54:39.001Z,10.15
2023-05-24T11:58:16.680Z,9.07
2023-05-24T12:01:48.653Z,8.35
2023-05-24T12:05:22.311Z,15.45
2023-05-24T12:08:54.615Z,11.40
2023-05-24T12:12:30.849Z,10.30
2023-05-24T12:16:11.984Z,11.20
2023-05-24T12:19:44.154Z,14.95
2023-05-24T12:23:24.230Z,11.37
2023-05-24T12:27:09.677Z,13.00
2023-05-24T12:30:44.855Z,11.55
2023-05-24T12:34:19.541Z,11.50
2023-05-24T12:37:59.682Z,11.88
2023-05-24T12:41:33.621Z,15.37
2023-05-24T12:45:05.953Z,15.38
2023-05-24T12:48:38.026Z,13.07
2023-05-24T12:52:09.691Z,12.63
2023-05-24T12:55:42.349Z,12.60
2023-05-24T12:59:15.099Z,11.85
2023-05-24T13:02:47.169Z,10.05
2023-05-24T13:06:19.700Z,14.67
2023-05-24T13:09:51.562Z,10.10
2023-05-24T13:13:24.364Z,8.68
2023-05-24T13:16:56.174Z,13.70
2023-05-24T13:20:28.945Z,14.15
2023-05-24T13:24:01.081Z,9.90
2023-05-24T13:27:33.674Z,13.60
2023-05-24T13:31:06.574Z,13.35
2023-05-24T13:34:38.764Z,9.70
2023-05-24T13:38:10.825Z,11.17
2023-05-24T13:41:43.651Z,13.38
2023-05-24T13:45:15.600Z,13.05
2023-05-24T13:48:47.640Z,14.90
2023-05-24T13:52:19.452Z,13.83
2023-05-24T13:55:52.627Z,21.85
2023-05-24T13:59:24.713Z,13.13
2023-05-24T14:02:58.071Z,11.57
2023-05-24T14:06:30.908Z,12.03
2023-05-24T14:10:03.365Z,9.68
2023-05-24T14:17:11.387Z,10.43
2023-05-24T14:20:43.902Z,9.53
2023-05-24T14:24:15.796Z,9.90
2023-05-24T14:27:47.990Z,10.60
2023-05-24T14:31:19.849Z,10.63
2023-05-24T14:34:54.556Z,9.60
2023-05-24T14:38:26.971Z,11.33
2023-05-24T14:41:58.850Z,8.38
2023-05-24T14:45:31.129Z,10.18
2023-05-24T14:49:03.680Z,7.95
2023-05-24T14:52:35.884Z,11.20
2023-05-24T14:56:11.299Z,10.23
2023-05-24T14:59:43.321Z,11.98
2023-05-24T15:03:15.379Z,11.93
2023-05-24T15:06:47.694Z,10.13
2023-05-24T15:10:19.758Z,10.68
2023-05-24T15:13:55.473Z,11.95
2023-05-24T15:17:27.749Z,10.40
2023-05-24T15:20:59.815Z,9.60
2023-05-24T15:24:31.963Z,11.03
2023-05-24T15:28:04.039Z,10.35
2023-05-24T15:31:36.596Z,13.73
2023-05-24T15:35:09.131Z,10.88
2023-05-24T15:38:42.468Z,10.73
2023-05-24T15:42:15.509Z,8.73
2023-05-24T15:45:48.235Z,10.35
2023-05-24T15:49:22.144Z,11.02
2023-05-24T15:52:54.017Z,10.77
2023-05-24T15:56:26.057Z,16.92
2023-05-24T15:59:58.374Z,11.20
2023-05-24T16:03:36.256Z,9.60
2023-05-24T16:07:10.509Z,11.93
2023-05-24T16:10:44.507Z,9.38
2023-05-24T16:14:17.058Z,9.90
2023-05-24T16:17:49.582Z,11.68
2023-05-24T16:21:21.824Z,11.13
2023-05-24T16:24:54.383Z,7.97
2023-05-24T16:28:26.605Z,8.38
2023-05-24T16:31:58.846Z,9.68
2023-05-24T16:35:31.320Z,12.17
2023-05-24T16:39:03.458Z,8.63
2023-05-24T16:42:35.484Z,9.60
2023-05-24T16:46:11.118Z,8.88
2023-05-24T16:49:43.241Z,10.38
2023-05-24T16:53:14.933Z,11.37
2023-05-24T16:56:48.226Z,10.30
2023-05-24T17:00:21.356Z,12.60
2023-05-24T17:03:53.396Z,7.55
2023-05-24T17:07:25.668Z,10.40
2023-05-24T17:10:57.950Z,10.82
2023-05-24T17:14:30.166Z,9.73
2023-05-24T17:18:02.322Z,12.13
2023-05-24T17:21:34.430Z,10.03
2023-05-24T17:25:07.680Z,9.18
2023-05-24T17:28:39.456Z,12.15
2023-05-24T17:32:11.812Z,11.43
2023-05-24T17:35:43.972Z,11.70
2023-05-24T17:39:20.300Z,9.07
2023-05-24T17:42:52.376Z,11.18
2023-05-24T17:46:24.293Z,13.70
2023-05-24T17:49:56.663Z,11.40
2023-05-24T17:53:31.681Z,11.05
2023-05-24T17:57:06.884Z,11.20
2023-05-24T18:00:39.095Z,12.27
2023-05-24T18:04:11.138Z,11.43
2023-05-24T18:07:50.172Z,12.30
2023-05-24T18:11:24.573Z,15.52
2023-05-24T18:14:56.747Z,12.38
2023-05-24T18:18:29.638Z,10.93
2023-05-24T18:22:02.727Z,12.45
2023-05-24T18:25:35.105Z,11.25
2023-05-24T18:29:10.115Z,12.07
2023-05-24T18:32:52.106Z,12.20
2023-05-24T18:36:34.299Z,11.43
2023-05-24T18:40:08.273Z,12.27
2023-05-24T18:43:40.261Z,13.67
2023-05-24T18:47:12.332Z,12.27
2023-05-24T18:50:44.371Z,15.10
2023-05-24T18:54:16.427Z,15.45
2023-05-24T18:57:49.175Z,14.03
2023-05-24T19:01:21.054Z,11.63
2023-05-24T19:04:53.283Z,13.52
2023-05-24T19:08:25.208Z,13.52
2023-05-24T19:11:59.320Z,13.52
2023-05-24T19:15:31.103Z,15.43
2023-05-24T19:19:03.896Z,15.93
2023-05-24T19:22:35.940Z,14.88
2023-05-24T19:26:08.013Z,15.10
2023-05-24T19:29:40.065Z,15.37
2023-05-24T19:33:12.384Z,18.98
2023-05-24T19:36:44.343Z,16.10
2023-05-24T19:40:16.518Z,21.57
2023-05-24T19:43:48.484Z,16.27
2023-05-24T19:47:20.831Z,15.90
2023-05-24T19:50:52.992Z,12.52
2023-05-24T19:54:24.942Z,15.00
2023-05-24T19:57:57.027Z,16.17
2023-05-24T20:01:28.844Z,19.67
2023-05-24T20:05:00.938Z,19.20
2023-05-24T20:08:33.329Z,21.53
2023-05-24T20:12:06.203Z,19.90
2023-05-24T20:15:39.875Z,18.70
2023-05-24T20:19:12.091Z,18.33
2023-05-24T20:22:44.107Z,17.53
2023-05-24T20:26:15.817Z,13.40
2023-05-24T20:29:48.065Z,14.23
2023-05-24T20:33:19.876Z,13.52
2023-05-24T20:36:51.860Z,13.23
2023-05-24T20:40:25.163Z,14.97
2023-05-24T20:43:57.129Z,19.83
2023-05-24T20:47:30.398Z,11.40
2023-05-24T20:51:02.261Z,13.57
2023-05-24T20:54:34.659Z,14.57
2023-05-24T20:58:06.395Z,14.70
2023-05-24T21:01:38.339Z,15.23
2023-05-24T21:05:10.336Z,15.73
2023-05-24T21:08:43.530Z,13.98
2023-05-24T21:12:15.324Z,14.38
2023-05-24T21:15:47.589Z,13.55
2023-05-24T21:19:19.839Z,13.43
2023-05-24T21:22:51.696Z,14.70
2023-05-24T21:26:23.899Z,16.20
2023-05-24T21:29:55.802Z,13.60
2023-05-24T21:33:27.862Z,13.73
2023-05-24T21:37:01.114Z,17.38
2023-05-24T21:40:33.247Z,17.27
2023-05-24T21:44:06.881Z,15.33
2023-05-24T21:47:38.951Z,15.83
2023-05-24T21:51:11.242Z,16.02
2023-05-24T21:54:42.989Z,14.63
2023-05-24T21:58:15.009Z,16.00
2023-05-24T22:01:46.969Z,14.45
2023-05-24T22:05:19.293Z,15.07
2023-05-24T22:08:51.074Z,16.48
2023-05-24T22:12:25.035Z,16.70
2023-05-24T22:15:57.300Z,20.75
2023-05-24T22:19:40.150Z,18.77
2023-05-24T22:23:14.359Z,15.13
2023-05-24T22:26:47.033Z,16.63
2023-05-24T22:30:19.669Z,18.27
2023-05-24T22:33:51.351Z,18.90
2023-05-24T22:37:24.087Z,18.10
2023-05-24T22:40:56.219Z,18.17
2023-05-24T22:44:28.003Z,23.45
2023-05-24T22:48:00.203Z,20.80
2023-05-24T22:51:33.163Z,17.35
2023-05-24T22:55:05.555Z,20.40
2023-05-24T22:58:37.570Z,20.38
2023-05-24T23:02:09.764Z,16.43
2023-05-24T23:05:42.303Z,20.67
2023-05-24T23:09:14.593Z,15.63
2023-05-24T23:12:46.887Z,18.83
2023-05-24T23:16:19.114Z,20.63
2023-05-24T23:19:51.149Z,18.75
2023-05-24T23:23:23.949Z,15.82
2023-05-24T23:26:57.140Z,16.83
2023-05-24T23:30:29.139Z,19.20
2023-05-24T23:34:01.290Z,15.95
2023-05-24T23:37:33.944Z,15.82
2023-05-24T23:41:05.996Z,15.17
2023-05-24T23:44:37.830Z,12.40
2023-05-24T23:48:10.026Z,19.30
2023-05-24T23:51:42.087Z,18.23
2023-05-24T23:55:14.126Z,20.77
2023-05-24T23:58:46.926Z,15.63
